sensor_id;sensor_type;location;lat;lon;timestamp;P1;durP1;ratioP1;P2;durP2;ratioP2
78718;SDS011;68046;53.334;9.538;2023-06-22T03:43:43;9.00;;;5.28;;
78718;SDS011;68046;53.334;9.538;2023-06-22T03:46:14;9.40;;;6.20;;
78718;SDS011;68046;53.334;9.538;2023-06-22T03:48:44;13.23;;;7.38;;
78718;SDS011;68046;53.334;9.538;2023-06-22T03:51:14;12.82;;;9.10;;
78718;SDS011;68046;53.334;9.538;2023-06-22T03:53:44;13.45;;;8.48;;
78718;SDS011;68046;53.334;9.538;2023-06-22T03:56:14;14.63;;;9.00;;
78718;SDS011;68046;53.334;9.538;2023-06-22T03:58:50;14.93;;;9.05;;
78718;SDS011;68046;53.334;9.538;2023-06-22T04:01:19;9.77;;;7.00;;
78718;SDS011;68046;53.334;9.538;2023-06-22T04:03:49;16.23;;;7.90;;
78718;SDS011;68046;53.334;9.538;2023-06-22T04:06:19;9.70;;;6.72;;
78718;SDS011;68046;53.334;9.538;2023-06-22T04:08:49;11.30;;;7.80;;
78718;SDS011;68046;53.334;9.538;2023-06-22T04:11:22;20.10;;;11.52;;
78718;SDS011;68046;53.334;9.538;2023-06-22T04:13:54;14.98;;;9.05;;
78718;SDS011;68046;53.334;9.538;2023-06-22T04:16:24;11.85;;;8.30;;
78718;SDS011;68046;53.334;9.538;2023-06-22T04:18:54;12.30;;;8.10;;
78718;SDS011;68046;53.334;9.538;2023-06-22T04:21:27;10.60;;;7.82;;
78718;SDS011;68046;53.334;9.538;2023-06-22T04:23:57;13.95;;;8.07;;
78718;SDS011;68046;53.334;9.538;2023-06-22T04:26:27;16.00;;;9.00;;
78718;SDS011;68046;53.334;9.538;2023-06-22T04:29:00;12.63;;;8.38;;
78718;SDS011;68046;53.334;9.538;2023-06-22T04:31:32;13.73;;;8.50;;
78718;SDS011;68046;53.334;9.538;2023-06-22T04:34:03;15.18;;;9.00;;
78718;SDS011;68046;53.334;9.538;2023-06-22T04:36:40;13.55;;;8.95;;
78718;SDS011;68046;53.334;9.538;2023-06-22T04:39:21;13.38;;;8.45;;
78718;SDS011;68046;53.334;9.538;2023-06-22T04:42:12;12.30;;;7.85;;
78718;SDS011;68046;53.334;9.538;2023-06-22T04:44:48;12.90;;;8.52;;
78718;SDS011;68046;53.334;9.538;2023-06-22T04:47:57;14.40;;;9.50;;
78718;SDS011;68046;53.334;9.538;2023-06-22T04:53:19;17.40;;;11.30;;
78718;SDS011;68046;53.334;9.538;2023-06-22T04:55:49;20.92;;;10.95;;
78718;SDS011;68046;53.334;9.538;2023-06-22T04:58:19;16.48;;;10.07;;
78718;SDS011;68046;53.334;9.538;2023-06-22T05:00:52;18.50;;;10.40;;
78718;SDS011;68046;53.334;9.538;2023-06-22T05:03:24;16.75;;;10.82;;
78718;SDS011;68046;53.334;9.538;2023-06-22T05:05:55;16.50;;;10.20;;
78718;SDS011;68046;53.334;9.538;2023-06-22T05:08:25;17.60;;;11.25;;
78718;SDS011;68046;53.334;9.538;2023-06-22T05:10:55;15.75;;;10.82;;
78718;SDS011;68046;53.334;9.538;2023-06-22T05:13:31;15.95;;;12.32;;
78718;SDS011;68046;53.334;9.538;2023-06-22T05:16:04;19.65;;;11.85;;
78718;SDS011;68046;53.334;9.538;2023-06-22T05:18:34;18.48;;;12.23;;
78718;SDS011;68046;53.334;9.538;2023-06-22T05:21:04;20.48;;;13.20;;
78718;SDS011;68046;53.334;9.538;2023-06-22T05:23:34;21.40;;;13.75;;
78718;SDS011;68046;53.334;9.538;2023-06-22T05:26:04;21.55;;;12.52;;
78718;SDS011;68046;53.334;9.538;2023-06-22T05:28:36;23.58;;;14.13;;
78718;SDS011;68046;53.334;9.538;2023-06-22T05:31:08;24.15;;;14.70;;
78718;SDS011;68046;53.334;9.538;2023-06-22T05:33:38;22.00;;;13.27;;
78718;SDS011;68046;53.334;9.538;2023-06-22T05:36:09;19.40;;;13.55;;
78718;SDS011;68046;53.334;9.538;2023-06-22T05:38:39;25.73;;;13.65;;
78718;SDS011;68046;53.334;9.538;2023-06-22T05:43:39;18.08;;;12.32;;
78718;SDS011;68046;53.334;9.538;2023-06-22T05:46:12;20.85;;;12.32;;
78718;SDS011;68046;53.334;9.538;2023-06-22T05:48:42;21.95;;;13.90;;
78718;SDS011;68046;53.334;9.538;2023-06-22T05:51:12;18.95;;;12.82;;
78718;SDS011;68046;53.334;9.538;2023-06-22T05:53:42;21.95;;;13.63;;
78718;SDS011;68046;53.334;9.538;2023-06-22T05:56:16;21.52;;;12.65;;
78718;SDS011;68046;53.334;9.538;2023-06-22T05:58:46;18.45;;;11.27;;
78718;SDS011;68046;53.334;9.538;2023-06-22T06:01:19;19.67;;;13.45;;
78718;SDS011;68046;53.334;9.538;2023-06-22T06:03:49;19.98;;;13.30;;
78718;SDS011;68046;53.334;9.538;2023-06-22T06:06:19;21.05;;;13.50;;
78718;SDS011;68046;53.334;9.538;2023-06-22T06:08:55;23.67;;;13.35;;
78718;SDS011;68046;53.334;9.538;2023-06-22T06:11:26;20.48;;;13.05;;
78718;SDS011;68046;53.334;9.538;2023-06-22T06:13:56;16.85;;;11.30;;
78718;SDS011;68046;53.334;9.538;2023-06-22T06:16:29;18.05;;;11.15;;
78718;SDS011;68046;53.334;9.538;2023-06-22T06:18:59;14.23;;;10.48;;
78718;SDS011;68046;53.334;9.538;2023-06-22T06:21:29;16.48;;;10.30;;
78718;SDS011;68046;53.334;9.538;2023-06-22T06:23:59;15.43;;;11.10;;
78718;SDS011;68046;53.334;9.538;2023-06-22T06:26:29;16.58;;;10.70;;
78718;SDS011;68046;53.334;9.538;2023-06-22T06:28:59;20.08;;;11.80;;
78718;SDS011;68046;53.334;9.538;2023-06-22T06:34:02;13.93;;;8.70;;
78718;SDS011;68046;53.334;9.538;2023-06-22T06:36:33;12.20;;;8.13;;
78718;SDS011;68046;53.334;9.538;2023-06-22T06:39:03;12.00;;;6.63;;
78718;SDS011;68046;53.334;9.538;2023-06-22T06:41:33;12.18;;;7.75;;
78718;SDS011;68046;53.334;9.538;2023-06-22T06:44:13;10.93;;;6.63;;
78718;SDS011;68046;53.334;9.538;2023-06-22T06:46:46;13.82;;;7.65;;
78718;SDS011;68046;53.334;9.538;2023-06-22T06:49:16;12.10;;;7.57;;
78718;SDS011;68046;53.334;9.538;2023-06-22T06:51:47;11.55;;;7.20;;
78718;SDS011;68046;53.334;9.538;2023-06-22T06:54:17;14.20;;;7.03;;
78718;SDS011;68046;53.334;9.538;2023-06-22T06:59:17;10.82;;;5.78;;
78718;SDS011;68046;53.334;9.538;2023-06-22T07:01:50;8.52;;;5.55;;
78718;SDS011;68046;53.334;9.538;2023-06-22T07:04:20;8.05;;;5.18;;
78718;SDS011;68046;53.334;9.538;2023-06-22T07:06:50;9.10;;;4.82;;
78718;SDS011;68046;53.334;9.538;2023-06-22T07:09:20;9.90;;;5.40;;
78718;SDS011;68046;53.334;9.538;2023-06-22T07:11:50;8.95;;;6.10;;
78718;SDS011;68046;53.334;9.538;2023-06-22T07:14:20;10.25;;;5.63;;
78718;SDS011;68046;53.334;9.538;2023-06-22T07:16:53;10.00;;;5.55;;
78718;SDS011;68046;53.334;9.538;2023-06-22T07:19:26;9.50;;;5.10;;
78718;SDS011;68046;53.334;9.538;2023-06-22T07:21:58;9.73;;;6.13;;
78718;SDS011;68046;53.334;9.538;2023-06-22T07:24:28;11.40;;;5.00;;
78718;SDS011;68046;53.334;9.538;2023-06-22T07:26:59;9.90;;;6.18;;
78718;SDS011;68046;53.334;9.538;2023-06-22T07:29:30;10.77;;;6.70;;
78718;SDS011;68046;53.334;9.538;2023-06-22T07:32:03;10.80;;;6.45;;
78718;SDS011;68046;53.334;9.538;2023-06-22T07:34:34;12.65;;;6.15;;
78718;SDS011;68046;53.334;9.538;2023-06-22T07:37:05;10.15;;;6.38;;
78718;SDS011;68046;53.334;9.538;2023-06-22T07:39:35;8.15;;;5.22;;
78718;SDS011;68046;53.334;9.538;2023-06-22T07:42:05;6.63;;;5.00;;
78718;SDS011;68046;53.334;9.538;2023-06-22T07:44:36;9.63;;;6.00;;
78718;SDS011;68046;53.334;9.538;2023-06-22T07:47:08;8.90;;;5.25;;
78718;SDS011;68046;53.334;9.538;2023-06-22T07:49:38;11.38;;;6.57;;
78718;SDS011;68046;53.334;9.538;2023-06-22T07:52:08;9.73;;;4.97;;
78718;SDS011;68046;53.334;9.538;2023-06-22T07:54:39;11.43;;;5.47;;
78718;SDS011;68046;53.334;9.538;2023-06-22T07:57:09;8.18;;;5.22;;
78718;SDS011;68046;53.334;9.538;2023-06-22T07:59:39;9.38;;;5.55;;
78718;SDS011;68046;53.334;9.538;2023-06-22T08:02:12;9.00;;;6.10;;
78718;SDS011;68046;53.334;9.538;2023-06-22T08:04:42;6.88;;;4.57;;
78718;SDS011;68046;53.334;9.538;2023-06-22T08:07:12;9.98;;;5.03;;
78718;SDS011;68046;53.334;9.538;2023-06-22T08:09:46;8.52;;;4.45;;
78718;SDS011;68046;53.334;9.538;2023-06-22T08:12:16;8.48;;;4.57;;
78718;SDS011;68046;53.334;9.538;2023-06-22T08:14:46;7.65;;;4.13;;
78718;SDS011;68046;53.334;9.538;2023-06-22T08:17:19;6.10;;;4.45;;
78718;SDS011;68046;53.334;9.538;2023-06-22T08:19:49;7.32;;;4.55;;
78718;SDS011;68046;53.334;9.538;2023-06-22T08:22:19;8.48;;;5.88;;
78718;SDS011;68046;53.334;9.538;2023-06-22T08:24:49;8.45;;;5.00;;
78718;SDS011;68046;53.334;9.538;2023-06-22T08:27:19;9.55;;;4.85;;
78718;SDS011;68046;53.334;9.538;2023-06-22T08:29:50;6.90;;;4.60;;
78718;SDS011;68046;53.334;9.538;2023-06-22T08:32:27;7.00;;;4.45;;
78718;SDS011;68046;53.334;9.538;2023-06-22T08:34:59;9.40;;;3.92;;
78718;SDS011;68046;53.334;9.538;2023-06-22T08:37:29;6.20;;;3.65;;
78718;SDS011;68046;53.334;9.538;2023-06-22T08:40:03;9.35;;;4.85;;
78718;SDS011;68046;53.334;9.538;2023-06-22T08:42:36;7.93;;;4.47;;
78718;SDS011;68046;53.334;9.538;2023-06-22T08:45:07;5.43;;;4.13;;
78718;SDS011;68046;53.334;9.538;2023-06-22T08:47:41;5.97;;;4.30;;
78718;SDS011;68046;53.334;9.538;2023-06-22T08:50:11;8.85;;;4.13;;
78718;SDS011;68046;53.334;9.538;2023-06-22T08:52:42;8.15;;;4.57;;
78718;SDS011;68046;53.334;9.538;2023-06-22T08:55:12;7.60;;;4.07;;
78718;SDS011;68046;53.334;9.538;2023-06-22T08:57:42;6.43;;;4.20;;
78718;SDS011;68046;53.334;9.538;2023-06-22T09:00:13;7.20;;;4.20;;
78718;SDS011;68046;53.334;9.538;2023-06-22T09:02:49;6.57;;;4.00;;
78718;SDS011;68046;53.334;9.538;2023-06-22T09:05:19;6.68;;;3.50;;
78718;SDS011;68046;53.334;9.538;2023-06-22T09:10:21;6.80;;;3.33;;
78718;SDS011;68046;53.334;9.538;2023-06-22T09:12:51;6.40;;;3.53;;
78718;SDS011;68046;53.334;9.538;2023-06-22T09:15:21;8.57;;;4.40;;
78718;SDS011;68046;53.334;9.538;2023-06-22T09:20:24;6.97;;;4.18;;
78718;SDS011;68046;53.334;9.538;2023-06-22T09:22:55;6.38;;;4.03;;
78718;SDS011;68046;53.334;9.538;2023-06-22T09:27:55;6.70;;;3.33;;
78718;SDS011;68046;53.334;9.538;2023-06-22T09:30:25;11.60;;;4.43;;
78718;SDS011;68046;53.334;9.538;2023-06-22T09:32:58;7.30;;;3.92;;
78718;SDS011;68046;53.334;9.538;2023-06-22T09:35:29;6.43;;;4.10;;
78718;SDS011;68046;53.334;9.538;2023-06-22T09:37:59;8.05;;;4.30;;
78718;SDS011;68046;53.334;9.538;2023-06-22T09:40:28;6.07;;;3.97;;
78718;SDS011;68046;53.334;9.538;2023-06-22T09:42:59;5.47;;;3.30;;
78718;SDS011;68046;53.334;9.538;2023-06-22T09:45:29;7.63;;;4.00;;
78718;SDS011;68046;53.334;9.538;2023-06-22T09:48:02;8.63;;;4.63;;
78718;SDS011;68046;53.334;9.538;2023-06-22T09:50:32;6.45;;;4.00;;
78718;SDS011;68046;53.334;9.538;2023-06-22T09:53:02;7.22;;;4.70;;
78718;SDS011;68046;53.334;9.538;2023-06-22T09:55:32;7.10;;;4.95;;
78718;SDS011;68046;53.334;9.538;2023-06-22T09:58:02;7.75;;;4.45;;
78718;SDS011;68046;53.334;9.538;2023-06-22T10:03:04;8.88;;;5.15;;
78718;SDS011;68046;53.334;9.538;2023-06-22T10:05:34;8.18;;;5.15;;
78718;SDS011;68046;53.334;9.538;2023-06-22T10:08:04;7.63;;;4.55;;
78718;SDS011;68046;53.334;9.538;2023-06-22T10:10:36;7.90;;;4.93;;
78718;SDS011;68046;53.334;9.538;2023-06-22T10:13:08;6.82;;;4.25;;
78718;SDS011;68046;53.334;9.538;2023-06-22T10:15:39;8.02;;;4.60;;
78718;SDS011;68046;53.334;9.538;2023-06-22T10:18:15;7.97;;;4.72;;
78718;SDS011;68046;53.334;9.538;2023-06-22T10:20:47;6.22;;;4.10;;
78718;SDS011;68046;53.334;9.538;2023-06-22T10:23:18;7.70;;;4.53;;
78718;SDS011;68046;53.334;9.538;2023-06-22T10:25:49;10.02;;;4.20;;
78718;SDS011;68046;53.334;9.538;2023-06-22T10:28:19;8.02;;;5.15;;
78718;SDS011;68046;53.334;9.538;2023-06-22T10:30:50;7.78;;;5.57;;
78718;SDS011;68046;53.334;9.538;2023-06-22T10:33:23;7.55;;;5.45;;
78718;SDS011;68046;53.334;9.538;2023-06-22T10:35:53;6.78;;;4.88;;
78718;SDS011;68046;53.334;9.538;2023-06-22T10:40:53;7.70;;;4.68;;
78718;SDS011;68046;53.334;9.538;2023-06-22T10:43:25;9.88;;;4.78;;
78718;SDS011;68046;53.334;9.538;2023-06-22T10:45:55;6.25;;;4.75;;
78718;SDS011;68046;53.334;9.538;2023-06-22T10:48:28;10.27;;;5.30;;
78718;SDS011;68046;53.334;9.538;2023-06-22T10:50:58;9.23;;;4.65;;
78718;SDS011;68046;53.334;9.538;2023-06-22T10:53:28;9.40;;;4.78;;
78718;SDS011;68046;53.334;9.538;2023-06-22T10:55:59;8.38;;;5.40;;
78718;SDS011;68046;53.334;9.538;2023-06-22T10:58:29;9.70;;;5.78;;
78718;SDS011;68046;53.334;9.538;2023-06-22T11:00:59;8.13;;;6.13;;
78718;SDS011;68046;53.334;9.538;2023-06-22T11:03:32;7.63;;;5.93;;
78718;SDS011;68046;53.334;9.538;2023-06-22T11:06:03;8.63;;;5.00;;
78718;SDS011;68046;53.334;9.538;2023-06-22T11:11:02;7.18;;;5.38;;
78718;SDS011;68046;53.334;9.538;2023-06-22T11:13:33;7.20;;;5.70;;
78718;SDS011;68046;53.334;9.538;2023-06-22T11:16:03;7.20;;;5.35;;
78718;SDS011;68046;53.334;9.538;2023-06-22T11:18:36;8.77;;;5.97;;
78718;SDS011;68046;53.334;9.538;2023-06-22T11:21:07;9.30;;;5.75;;
78718;SDS011;68046;53.334;9.538;2023-06-22T11:23:37;7.03;;;5.45;;
78718;SDS011;68046;53.334;9.538;2023-06-22T11:26:07;8.75;;;6.07;;
78718;SDS011;68046;53.334;9.538;2023-06-22T11:28:38;10.85;;;6.20;;
78718;SDS011;68046;53.334;9.538;2023-06-22T11:31:08;7.57;;;5.72;;
78718;SDS011;68046;53.334;9.538;2023-06-22T11:33:44;10.50;;;5.10;;
78718;SDS011;68046;53.334;9.538;2023-06-22T11:36:14;8.75;;;5.05;;
78718;SDS011;68046;53.334;9.538;2023-06-22T11:38:45;8.32;;;5.15;;
78718;SDS011;68046;53.334;9.538;2023-06-22T11:41:15;10.95;;;5.07;;
78718;SDS011;68046;53.334;9.538;2023-06-22T11:43:46;10.48;;;5.72;;
78718;SDS011;68046;53.334;9.538;2023-06-22T11:46:16;8.52;;;5.40;;
78718;SDS011;68046;53.334;9.538;2023-06-22T11:51:19;7.13;;;5.30;;
78718;SDS011;68046;53.334;9.538;2023-06-22T11:53:49;7.38;;;5.13;;
78718;SDS011;68046;53.334;9.538;2023-06-22T11:56:19;7.18;;;5.60;;
78718;SDS011;68046;53.334;9.538;2023-06-22T12:01:20;7.18;;;5.05;;
78718;SDS011;68046;53.334;9.538;2023-06-22T12:03:53;7.93;;;5.30;;
78718;SDS011;68046;53.334;9.538;2023-06-22T12:06:24;8.82;;;5.68;;
78718;SDS011;68046;53.334;9.538;2023-06-22T12:08:54;8.43;;;4.65;;
78718;SDS011;68046;53.334;9.538;2023-06-22T12:13:54;6.13;;;5.03;;
78718;SDS011;68046;53.334;9.538;2023-06-22T12:16:28;9.43;;;4.72;;
78718;SDS011;68046;53.334;9.538;2023-06-22T12:19:01;7.18;;;5.05;;
78718;SDS011;68046;53.334;9.538;2023-06-22T12:21:31;7.13;;;4.70;;
78718;SDS011;68046;53.334;9.538;2023-06-22T12:24:02;6.75;;;5.30;;
78718;SDS011;68046;53.334;9.538;2023-06-22T12:26:32;8.48;;;4.75;;
78718;SDS011;68046;53.334;9.538;2023-06-22T12:31:32;7.57;;;5.32;;
78718;SDS011;68046;53.334;9.538;2023-06-22T12:34:06;8.95;;;5.68;;
78718;SDS011;68046;53.334;9.538;2023-06-22T12:36:36;7.32;;;6.00;;
78718;SDS011;68046;53.334;9.538;2023-06-22T12:39:06;8.90;;;5.65;;
78718;SDS011;68046;53.334;9.538;2023-06-22T12:41:37;7.55;;;5.63;;
78718;SDS011;68046;53.334;9.538;2023-06-22T12:46:37;7.28;;;5.50;;
78718;SDS011;68046;53.334;9.538;2023-06-22T12:49:09;9.38;;;5.55;;
78718;SDS011;68046;53.334;9.538;2023-06-22T12:51:39;7.55;;;5.75;;
78718;SDS011;68046;53.334;9.538;2023-06-22T12:54:11;7.57;;;5.80;;
78718;SDS011;68046;53.334;9.538;2023-06-22T12:56:41;6.82;;;5.45;;
78718;SDS011;68046;53.334;9.538;2023-06-22T12:59:11;7.53;;;5.70;;
78718;SDS011;68046;53.334;9.538;2023-06-22T13:01:44;9.13;;;5.50;;
78718;SDS011;68046;53.334;9.538;2023-06-22T13:06:46;7.03;;;5.45;;
78718;SDS011;68046;53.334;9.538;2023-06-22T13:09:18;6.70;;;5.00;;
78718;SDS011;68046;53.334;9.538;2023-06-22T13:11:48;8.18;;;5.85;;
78718;SDS011;68046;53.334;9.538;2023-06-22T13:14:19;8.02;;;5.93;;
78718;SDS011;68046;53.334;9.538;2023-06-22T13:16:49;6.05;;;5.25;;
78718;SDS011;68046;53.334;9.538;2023-06-22T13:19:22;7.47;;;5.47;;
78718;SDS011;68046;53.334;9.538;2023-06-22T13:21:55;9.98;;;5.90;;
78718;SDS011;68046;53.334;9.538;2023-06-22T13:24:25;7.35;;;5.95;;
78718;SDS011;68046;53.334;9.538;2023-06-22T13:26:55;7.30;;;5.65;;
78718;SDS011;68046;53.334;9.538;2023-06-22T13:31:56;7.57;;;5.45;;
78718;SDS011;68046;53.334;9.538;2023-06-22T13:34:28;8.50;;;6.28;;
78718;SDS011;68046;53.334;9.538;2023-06-22T13:36:59;10.52;;;6.38;;
78718;SDS011;68046;53.334;9.538;2023-06-22T13:39:29;8.57;;;5.80;;
78718;SDS011;68046;53.334;9.538;2023-06-22T13:41:59;7.90;;;6.53;;
78718;SDS011;68046;53.334;9.538;2023-06-22T13:44:30;7.53;;;6.07;;
78718;SDS011;68046;53.334;9.538;2023-06-22T13:47:00;7.93;;;6.20;;
78718;SDS011;68046;53.334;9.538;2023-06-22T13:49:34;7.45;;;6.38;;
78718;SDS011;68046;53.334;9.538;2023-06-22T13:52:04;9.77;;;6.70;;
78718;SDS011;68046;53.334;9.538;2023-06-22T13:54:37;8.25;;;5.90;;
78718;SDS011;68046;53.334;9.538;2023-06-22T13:57:07;7.93;;;6.20;;
78718;SDS011;68046;53.334;9.538;2023-06-22T13:59:37;6.97;;;5.65;;
78718;SDS011;68046;53.334;9.538;2023-06-22T14:02:07;8.40;;;6.40;;
78718;SDS011;68046;53.334;9.538;2023-06-22T14:07:10;8.75;;;6.28;;
78718;SDS011;68046;53.334;9.538;2023-06-22T14:12:11;9.02;;;6.07;;
78718;SDS011;68046;53.334;9.538;2023-06-22T14:14:42;8.35;;;6.55;;
78718;SDS011;68046;53.334;9.538;2023-06-22T14:17:13;9.60;;;7.13;;
78718;SDS011;68046;53.334;9.538;2023-06-22T14:19:46;8.15;;;6.85;;
78718;SDS011;68046;53.334;9.538;2023-06-22T14:22:16;9.55;;;6.68;;
78718;SDS011;68046;53.334;9.538;2023-06-22T14:24:46;8.93;;;7.15;;
78718;SDS011;68046;53.334;9.538;2023-06-22T14:27:17;8.57;;;6.43;;
78718;SDS011;68046;53.334;9.538;2023-06-22T14:29:47;8.75;;;6.45;;
78718;SDS011;68046;53.334;9.538;2023-06-22T14:34:50;8.50;;;6.25;;
78718;SDS011;68046;53.334;9.538;2023-06-22T14:37:20;8.07;;;6.50;;
78718;SDS011;68046;53.334;9.538;2023-06-22T14:39:51;8.65;;;6.90;;
78718;SDS011;68046;53.334;9.538;2023-06-22T14:42:21;7.30;;;6.05;;
78718;SDS011;68046;53.334;9.538;2023-06-22T14:44:53;8.80;;;6.63;;
78718;SDS011;68046;53.334;9.538;2023-06-22T14:49:56;7.35;;;6.38;;
78718;SDS011;68046;53.334;9.538;2023-06-22T14:52:27;8.25;;;6.35;;
78718;SDS011;68046;53.334;9.538;2023-06-22T14:54:57;8.13;;;6.03;;
78718;SDS011;68046;53.334;9.538;2023-06-22T14:57:27;11.30;;;6.82;;
78718;SDS011;68046;53.334;9.538;2023-06-22T14:59:58;7.40;;;6.00;;
78718;SDS011;68046;53.334;9.538;2023-06-22T15:02:29;8.50;;;6.13;;
78718;SDS011;68046;53.334;9.538;2023-06-22T15:05:02;8.23;;;6.38;;
78718;SDS011;68046;53.334;9.538;2023-06-22T15:07:32;9.48;;;5.78;;
78718;SDS011;68046;53.334;9.538;2023-06-22T15:10:03;11.00;;;7.30;;
78718;SDS011;68046;53.334;9.538;2023-06-22T15:12:34;8.48;;;6.18;;
78718;SDS011;68046;53.334;9.538;2023-06-22T15:15:05;11.52;;;7.30;;
78718;SDS011;68046;53.334;9.538;2023-06-22T15:17:36;9.45;;;6.40;;
78718;SDS011;68046;53.334;9.538;2023-06-22T15:20:09;9.05;;;6.93;;
78718;SDS011;68046;53.334;9.538;2023-06-22T15:22:40;7.32;;;6.43;;
78718;SDS011;68046;53.334;9.538;2023-06-22T15:27:40;8.27;;;6.35;;
78718;SDS011;68046;53.334;9.538;2023-06-22T15:30:10;11.52;;;6.45;;
78718;SDS011;68046;53.334;9.538;2023-06-22T15:32:42;9.90;;;6.75;;
78718;SDS011;68046;53.334;9.538;2023-06-22T15:35:16;9.07;;;6.25;;
78718;SDS011;68046;53.334;9.538;2023-06-22T15:37:46;10.75;;;6.60;;
78718;SDS011;68046;53.334;9.538;2023-06-22T15:40:18;11.40;;;6.47;;
78718;SDS011;68046;53.334;9.538;2023-06-22T15:42:49;8.00;;;6.47;;
78718;SDS011;68046;53.334;9.538;2023-06-22T15:45:20;10.48;;;6.50;;
78718;SDS011;68046;53.334;9.538;2023-06-22T15:47:50;8.73;;;6.63;;
78718;SDS011;68046;53.334;9.538;2023-06-22T15:52:53;9.88;;;6.30;;
78718;SDS011;68046;53.334;9.538;2023-06-22T15:55:23;10.30;;;6.65;;
78718;SDS011;68046;53.334;9.538;2023-06-22T15:57:53;7.63;;;6.45;;
78718;SDS011;68046;53.334;9.538;2023-06-22T16:00:23;7.50;;;6.70;;
78718;SDS011;68046;53.334;9.538;2023-06-22T16:02:53;10.45;;;7.13;;
78718;SDS011;68046;53.334;9.538;2023-06-22T16:05:26;10.85;;;6.57;;
78718;SDS011;68046;53.334;9.538;2023-06-22T16:07:57;8.52;;;6.45;;
78718;SDS011;68046;53.334;9.538;2023-06-22T16:10:27;9.88;;;7.20;;
78718;SDS011;68046;53.334;9.538;2023-06-22T16:12:58;9.05;;;5.97;;
78718;SDS011;68046;53.334;9.538;2023-06-22T16:15:28;9.07;;;7.30;;
78718;SDS011;68046;53.334;9.538;2023-06-22T16:17:58;11.63;;;7.00;;
78718;SDS011;68046;53.334;9.538;2023-06-22T16:20:31;8.98;;;6.95;;
78718;SDS011;68046;53.334;9.538;2023-06-22T16:23:01;12.00;;;7.43;;
78718;SDS011;68046;53.334;9.538;2023-06-22T16:25:31;10.38;;;6.72;;
78718;SDS011;68046;53.334;9.538;2023-06-22T16:28:02;8.88;;;6.47;;
78718;SDS011;68046;53.334;9.538;2023-06-22T16:30:32;10.20;;;6.90;;
78718;SDS011;68046;53.334;9.538;2023-06-22T16:33:02;9.43;;;7.35;;
78718;SDS011;68046;53.334;9.538;2023-06-22T16:38:07;10.38;;;7.53;;
78718;SDS011;68046;53.334;9.538;2023-06-22T16:40:37;9.57;;;7.38;;
78718;SDS011;68046;53.334;9.538;2023-06-22T16:43:07;9.32;;;6.40;;
78718;SDS011;68046;53.334;9.538;2023-06-22T16:48:07;11.02;;;7.68;;
78718;SDS011;68046;53.334;9.538;2023-06-22T16:50:41;10.20;;;6.65;;
78718;SDS011;68046;53.334;9.538;2023-06-22T16:53:10;10.65;;;7.68;;
78718;SDS011;68046;53.334;9.538;2023-06-22T16:55:41;8.40;;;7.35;;
78718;SDS011;68046;53.334;9.538;2023-06-22T16:58:12;10.10;;;7.38;;
78718;SDS011;68046;53.334;9.538;2023-06-22T17:00:45;9.65;;;7.13;;
78718;SDS011;68046;53.334;9.538;2023-06-22T17:03:20;16.70;;;7.78;;
78718;SDS011;68046;53.334;9.538;2023-06-22T17:06:02;10.95;;;8.05;;
78718;SDS011;68046;53.334;9.538;2023-06-22T17:08:33;9.65;;;7.20;;
78718;SDS011;68046;53.334;9.538;2023-06-22T17:11:13;11.57;;;9.07;;
78718;SDS011;68046;53.334;9.538;2023-06-22T17:13:44;9.85;;;8.25;;
78718;SDS011;68046;53.334;9.538;2023-06-22T17:16:21;12.15;;;9.00;;
78718;SDS011;68046;53.334;9.538;2023-06-22T17:19:05;9.55;;;8.27;;
78718;SDS011;68046;53.334;9.538;2023-06-22T17:22:12;10.98;;;8.05;;
78718;SDS011;68046;53.334;9.538;2023-06-22T17:24:42;10.95;;;8.45;;
78718;SDS011;68046;53.334;9.538;2023-06-22T17:27:13;11.00;;;8.05;;
78718;SDS011;68046;53.334;9.538;2023-06-22T17:32:13;9.75;;;7.75;;
78718;SDS011;68046;53.334;9.538;2023-06-22T17:34:43;9.70;;;8.43;;
78718;SDS011;68046;53.334;9.538;2023-06-22T17:37:15;10.90;;;8.43;;
78718;SDS011;68046;53.334;9.538;2023-06-22T17:39:45;9.27;;;7.70;;
78718;SDS011;68046;53.334;9.538;2023-06-22T17:42:21;10.00;;;8.60;;
78718;SDS011;68046;53.334;9.538;2023-06-22T17:44:51;12.00;;;7.15;;
78718;SDS011;68046;53.334;9.538;2023-06-22T17:47:22;9.90;;;7.15;;
78718;SDS011;68046;53.334;9.538;2023-06-22T17:50:02;10.25;;;7.97;;
78718;SDS011;68046;53.334;9.538;2023-06-22T17:52:35;10.85;;;7.82;;
78718;SDS011;68046;53.334;9.538;2023-06-22T17:55:06;9.15;;;7.25;;
78718;SDS011;68046;53.334;9.538;2023-06-22T17:57:37;9.82;;;7.18;;
78718;SDS011;68046;53.334;9.538;2023-06-22T18:00:10;7.35;;;6.05;;
78718;SDS011;68046;53.334;9.538;2023-06-22T18:02:43;8.95;;;6.03;;
78718;SDS011;68046;53.334;9.538;2023-06-22T18:05:13;8.65;;;6.97;;
78718;SDS011;68046;53.334;9.538;2023-06-22T18:07:47;7.20;;;5.90;;
78718;SDS011;68046;53.334;9.538;2023-06-22T18:10:19;9.30;;;6.32;;
78718;SDS011;68046;53.334;9.538;2023-06-22T18:12:49;7.97;;;5.88;;
78718;SDS011;68046;53.334;9.538;2023-06-22T18:15:20;8.45;;;5.57;;
78718;SDS011;68046;53.334;9.538;2023-06-22T18:17:51;7.18;;;5.05;;
78718;SDS011;68046;53.334;9.538;2023-06-22T18:20:22;7.50;;;5.63;;
78718;SDS011;68046;53.334;9.538;2023-06-22T18:22:54;5.72;;;4.63;;
78718;SDS011;68046;53.334;9.538;2023-06-22T18:25:24;6.63;;;4.70;;
78718;SDS011;68046;53.334;9.538;2023-06-22T18:27:55;5.90;;;4.50;;
78718;SDS011;68046;53.334;9.538;2023-06-22T18:30:25;6.50;;;4.50;;
78718;SDS011;68046;53.334;9.538;2023-06-22T18:32:55;5.55;;;4.43;;
78718;SDS011;68046;53.334;9.538;2023-06-22T18:35:26;6.32;;;4.43;;
78718;SDS011;68046;53.334;9.538;2023-06-22T18:37:59;5.60;;;4.63;;
78718;SDS011;68046;53.334;9.538;2023-06-22T18:40:30;5.15;;;3.85;;
78718;SDS011;68046;53.334;9.538;2023-06-22T18:43:00;5.70;;;4.30;;
78718;SDS011;68046;53.334;9.538;2023-06-22T18:45:30;6.45;;;4.10;;
78718;SDS011;68046;53.334;9.538;2023-06-22T18:48:01;5.78;;;4.35;;
78718;SDS011;68046;53.334;9.538;2023-06-22T18:50:37;7.10;;;4.00;;
78718;SDS011;68046;53.334;9.538;2023-06-22T18:56:09;8.85;;;4.30;;
78718;SDS011;68046;53.334;9.538;2023-06-22T18:58:40;6.15;;;4.22;;
78718;SDS011;68046;53.334;9.538;2023-06-22T19:01:14;6.30;;;4.13;;
78718;SDS011;68046;53.334;9.538;2023-06-22T19:03:48;6.70;;;4.35;;
78718;SDS011;68046;53.334;9.538;2023-06-22T19:09:22;7.47;;;4.20;;
78718;SDS011;68046;53.334;9.538;2023-06-22T19:12:15;6.38;;;4.50;;
78718;SDS011;68046;53.334;9.538;2023-06-22T19:14:59;6.25;;;4.28;;
78718;SDS011;68046;53.334;9.538;2023-06-22T19:17:30;7.78;;;4.15;;
78718;SDS011;68046;53.334;9.538;2023-06-22T19:20:02;8.20;;;4.70;;
78718;SDS011;68046;53.334;9.538;2023-06-22T19:25:27;6.32;;;4.22;;
78718;SDS011;68046;53.334;9.538;2023-06-22T19:28:00;5.65;;;4.07;;
78718;SDS011;68046;53.334;9.538;2023-06-22T19:30:30;8.00;;;4.30;;
78718;SDS011;68046;53.334;9.538;2023-06-22T19:33:01;5.72;;;4.40;;
78718;SDS011;68046;53.334;9.538;2023-06-22T19:35:34;5.97;;;4.00;;
78718;SDS011;68046;53.334;9.538;2023-06-22T19:38:07;5.50;;;4.15;;
78718;SDS011;68046;53.334;9.538;2023-06-22T19:40:41;6.22;;;3.90;;
78718;SDS011;68046;53.334;9.538;2023-06-22T19:43:11;6.47;;;4.10;;
78718;SDS011;68046;53.334;9.538;2023-06-22T19:45:42;11.55;;;4.65;;
78718;SDS011;68046;53.334;9.538;2023-06-22T19:48:13;5.10;;;4.18;;
78718;SDS011;68046;53.334;9.538;2023-06-22T19:50:44;5.70;;;4.30;;
78718;SDS011;68046;53.334;9.538;2023-06-22T19:53:14;5.78;;;3.97;;
78718;SDS011;68046;53.334;9.538;2023-06-22T19:55:47;6.75;;;4.25;;
78718;SDS011;68046;53.334;9.538;2023-06-22T19:58:18;5.47;;;4.30;;
78718;SDS011;68046;53.334;9.538;2023-06-22T20:00:50;7.38;;;5.05;;
78718;SDS011;68046;53.334;9.538;2023-06-22T20:03:25;7.22;;;4.93;;